23 a 30/3 - Perturbación de lento desplazamiento con CG al final, abundante PP localmente C y N

Avatar de Usuario
Wyoming
Mensajes: 1225
Registrado: Jue Jun 22, 2017 12:15 pm
Ubicación: Fiske Menuco

Re: 23 a 30/3 - Perturbación de lento desplazamiento con CG al final, abundante PP localmente C y N

Mensaje por Wyoming » Sab Mar 27, 2021 2:44 pm

Buenas.
6,6/23,7 los extremos de ayer.
Hoy el día arrancó con una mínima de 0,8°C a las 07:40am.
Ahora Roca RMA marca 24°C, bastante amplitud.
Despejado y sin viento.
Previously known as MarianoStorm.
Pasillo de los Tornados - Pasado y presente.
Me gustan los idiomas.


Avatar de Usuario
Diecha
Mensajes: 15103
Registrado: Jue Ago 25, 2011 9:31 pm
Ubicación: Lomas de Zamora

Re: 23 a 30/3 - Perturbación de lento desplazamiento con CG al final, abundante PP localmente C y N

Mensaje por Diecha » Sab Mar 27, 2021 4:36 pm



Imagen

marleygaletfede
Mensajes: 2450
Registrado: Lun Feb 20, 2012 10:13 pm
Ubicación: Santa Teresita, Partido de La Costa, Buenos Aires

Re: 23 a 30/3 - Perturbación de lento desplazamiento con CG al final, abundante PP localmente C y N

Mensaje por marleygaletfede » Sab Mar 27, 2021 5:36 pm

Vamos!!! Un poco mas al esteee ja ja

Avatar de Usuario
Carlitos12
Mensajes: 2383
Registrado: Jue Jul 16, 2015 10:39 pm
Ubicación: Ciudad de Corrientes
Contactar:

Re: 23 a 30/3 - Perturbación de lento desplazamiento con CG al final, abundante PP localmente C y N

Mensaje por Carlitos12 » Sab Mar 27, 2021 5:39 pm

Formosa 179 mm

Corrientes 65 mm hasta las 15hs, igual quedará con deficit mensual de 70 mm aprox

Avatar de Usuario
Ale de Castelar
Mensajes: 28410
Registrado: Sab Mar 03, 2012 12:25 pm
Ubicación: Caballito

Re: 23 a 30/3 - Perturbación de lento desplazamiento con CG al final, abundante PP localmente C y N

Mensaje por Ale de Castelar » Sab Mar 27, 2021 5:43 pm

Ushuaia


marleygaletfede
Mensajes: 2450
Registrado: Lun Feb 20, 2012 10:13 pm
Ubicación: Santa Teresita, Partido de La Costa, Buenos Aires

Re: 23 a 30/3 - Perturbación de lento desplazamiento con CG al final, abundante PP localmente C y N

Mensaje por marleygaletfede » Sab Mar 27, 2021 6:14 pm

Truenos!!!!!! Wiiiiiiiiiiiiiii

Avatar de Usuario
Diecha
Mensajes: 15103
Registrado: Jue Ago 25, 2011 9:31 pm
Ubicación: Lomas de Zamora

Re: 23 a 30/3 - Perturbación de lento desplazamiento con CG al final, abundante PP localmente C y N

Mensaje por Diecha » Sab Mar 27, 2021 6:16 pm



Imagen

- Tandil 18 hs: SAZT 272100Z 16015KT 6000 BKN012 OVC040 15/14 Q1015
- Mar del Plata 18 hs: SAZM 272100Z 14020KT 2800 -DZ BR SCT009 BKN013 OVC027 16/15 Q1016

Imagen

marleygaletfede
Mensajes: 2450
Registrado: Lun Feb 20, 2012 10:13 pm
Ubicación: Santa Teresita, Partido de La Costa, Buenos Aires

Re: 23 a 30/3 - Perturbación de lento desplazamiento con CG al final, abundante PP localmente C y N

Mensaje por marleygaletfede » Sab Mar 27, 2021 6:33 pm

Absoluto diluvio...

Avatar de Usuario
Diecha
Mensajes: 15103
Registrado: Jue Ago 25, 2011 9:31 pm
Ubicación: Lomas de Zamora

Re: 23 a 30/3 - Perturbación de lento desplazamiento con CG al final, abundante PP localmente C y N

Mensaje por Diecha » Sab Mar 27, 2021 7:31 pm



Imagen
Imagen

- Tandil 19 hs: SAZT 272200Z 16015KT 3000 RA BKN010 OVC040 14/14 Q1015
- Mar del Plata 19 hs: SAZM 272200Z 14018KT 5000 -DZ BR BKN010 OVC014 16/15 Q1016

Imagen

Responder